Time;durP1;ratioP1;P1;durP2;ratioP2;P2;SDS_P1;SDS_P2;PMS_P1;PMS_P2;Temp;Humidity;BMP_temperature;BMP_pressure;BME280_temperature;BME280_humidity;BME280_pressure;Samples;Min_cycle;Max_cycle;Signal;HPM_P1;HPM_P2
2022/07/27 00:00:24;;;;;;;2.83;0.80;;;16.00;70.70;;;;;;5075493;28;20532;-79
2022/07/27 00:02:50;;;;;;;3.78;0.90;;;16.00;70.60;;;;;;5093518;28;20074;-81
2022/07/27 00:05:18;;;;;;;1.30;0.60;;;16.00;70.60;;;;;;5093665;28;20016;-79
2022/07/27 00:07:44;;;;;;;2.13;0.80;;;16.00;70.50;;;;;;5092624;28;20020;-79
2022/07/27 00:10:10;;;;;;;2.60;0.82;;;16.10;70.60;;;;;;5092319;28;20021;-79
2022/07/27 00:12:36;;;;;;;3.60;0.93;;;16.10;70.50;;;;;;5093473;28;20061;-79
2022/07/27 00:15:02;;;;;;;1.73;0.80;;;16.10;70.50;;;;;;5075437;28;20028;-80
2022/07/27 00:17:28;;;;;;;4.15;1.08;;;16.10;70.50;;;;;;5091899;28;20069;-80
2022/07/27 00:19:53;;;;;;;1.25;0.90;;;16.10;70.40;;;;;;5075195;28;20486;-78
2022/07/27 00:22:19;;;;;;;4.38;0.95;;;16.10;70.50;;;;;;5093227;28;20204;-80
2022/07/27 00:24:44;;;;;;;1.60;0.80;;;16.00;70.50;;;;;;5075171;28;20032;-79
2022/07/27 00:27:10;;;;;;;4.35;0.90;;;16.00;70.60;;;;;;5093512;28;20023;-79
2022/07/27 00:29:36;;;;;;;2.40;0.80;;;16.00;71.20;;;;;;5075082;28;20031;-79
2022/07/27 00:32:01;;;;;;;2.08;1.13;;;15.90;70.70;;;;;;5075012;28;20035;-79
2022/07/27 00:34:27;;;;;;;1.90;0.90;;;15.90;71.40;;;;;;5074918;28;20032;-80
2022/07/27 00:36:52;;;;;;;1.85;0.93;;;15.80;70.80;;;;;;5074590;28;20044;-79
2022/07/27 00:39:18;;;;;;;1.45;0.85;;;15.80;71.00;;;;;;5093366;28;20028;-79
2022/07/27 00:41:45;;;;;;;2.78;0.98;;;15.70;71.00;;;;;;5074531;28;20047;-79
2022/07/27 00:44:11;;;;;;;2.85;0.90;;;15.70;71.20;;;;;;5092967;28;20479;-79
2022/07/27 00:46:37;;;;;;;3.10;1.10;;;15.70;71.30;;;;;;5074897;28;20048;-79
2022/07/27 00:49:04;;;;;;;3.63;0.98;;;15.70;71.40;;;;;;5093294;28;20046;-80
2022/07/27 00:51:31;;;;;;;3.28;1.10;;;15.70;71.40;;;;;;5091697;28;20032;-79
2022/07/27 00:53:57;;;;;;;1.05;0.80;;;15.60;71.50;;;;;;5093197;28;20039;-79
2022/07/27 00:56:23;;;;;;;2.85;1.05;;;15.60;71.50;;;;;;5074914;28;20078;-79
2022/07/27 00:58:52;;;;;;;2.13;1.00;;;15.60;71.60;;;;;;5074690;28;20066;-78
2022/07/27 01:01:18;;;;;;;1.88;0.73;;;15.50;72.00;;;;;;5092656;28;20036;-77
2022/07/27 01:03:45;;;;;;;3.60;1.00;;;15.50;71.80;;;;;;5076434;28;20146;-77
2022/07/27 01:06:11;;;;;;;4.30;0.93;;;15.40;71.90;;;;;;5094921;28;20379;-76
2022/07/27 01:08:37;;;;;;;2.78;0.93;;;15.40;72.00;;;;;;5078047;28;20030;-77
2022/07/27 01:11:03;;;;;;;2.67;1.00;;;15.40;72.00;;;;;;5096390;28;20378;-77
2022/07/27 01:13:29;;;;;;;6.07;0.93;;;15.40;72.10;;;;;;5095069;28;20059;-77
2022/07/27 01:15:56;;;;;;;2.10;0.93;;;15.40;72.10;;;;;;5094812;28;20027;-77
2022/07/27 01:18:34;;;;;;;3.05;1.00;;;15.40;72.20;;;;;;5095019;28;20101;-77
2022/07/27 01:21:02;;;;;;;8.73;1.52;;;15.40;72.20;;;;;;5096350;28;20172;-77
2022/07/27 01:23:31;;;;;;;1.88;0.90;;;15.40;72.30;;;;;;5094501;28;20070;-77
2022/07/27 01:25:57;;;;;;;2.08;1.00;;;15.30;72.20;;;;;;5094920;28;20455;-77
2022/07/27 01:28:23;;;;;;;2.28;0.85;;;15.40;72.30;;;;;;5094501;28;20414;-77
2022/07/27 01:30:49;;;;;;;4.18;1.30;;;15.40;72.30;;;;;;5061255;28;20048;-76
2022/07/27 01:33:15;;;;;;;3.22;0.82;;;15.40;72.90;;;;;;5077508;28;20131;-77
2022/07/27 01:35:41;;;;;;;3.97;1.00;;;15.40;72.30;;;;;;5095835;28;20083;-77
2022/07/27 01:38:10;;;;;;;2.90;0.80;;;15.40;72.40;;;;;;5095671;28;20028;-77
2022/07/27 01:40:36;;;;;;;2.72;0.88;;;15.40;72.40;;;;;;5095718;28;20047;-77
2022/07/27 01:43:04;;;;;;;2.30;0.90;;;15.40;73.00;;;;;;5094312;28;20040;-77
2022/07/27 01:45:29;;;;;;;2.35;1.15;;;15.40;72.40;;;;;;5094123;28;20027;-77
2022/07/27 01:47:55;;;;;;;1.67;0.98;;;15.30;72.40;;;;;;5095869;28;20111;-76
2022/07/27 01:50:21;;;;;;;1.45;0.68;;;15.30;72.50;;;;;;5077401;28;20035;-77
2022/07/27 01:52:47;;;;;;;3.55;1.00;;;15.30;72.50;;;;;;5077077;28;20107;-77
2022/07/27 01:55:13;;;;;;;3.55;0.90;;;15.30;72.60;;;;;;5077079;28;20505;-77
2022/07/27 01:57:39;;;;;;;2.50;0.80;;;15.20;72.70;;;;;;5093930;28;20026;-77
2022/07/27 02:00:08;;;;;;;2.92;1.17;;;15.20;72.80;;;;;;5077019;28;20109;-77
2022/07/27 02:02:33;;;;;;;1.45;0.70;;;15.20;72.90;;;;;;5094012;28;20348;-77
2022/07/27 02:04:59;;;;;;;2.95;1.10;;;15.20;72.90;;;;;;5077340;28;20024;-77
2022/07/27 02:07:25;;;;;;;1.48;0.80;;;15.10;73.00;;;;;;5094998;28;20024;-77
2022/07/27 02:09:50;;;;;;;3.55;1.13;;;15.10;73.00;;;;;;5076932;28;20040;-77
2022/07/27 02:12:34;;;;;;;3.28;0.93;;;15.10;73.10;;;;;;5076640;28;20020;-77
2022/07/27 02:15:02;;;;;;;1.30;0.85;;;15.10;73.10;;;;;;5075653;28;20059;-76
2022/07/27 02:17:28;;;;;;;2.17;1.00;;;15.10;73.20;;;;;;5093491;28;20028;-76
2022/07/27 02:19:53;;;;;;;2.78;0.90;;;15.00;73.20;;;;;;5094778;28;20032;-76
2022/07/27 02:22:19;;;;;;;0.73;0.60;;;15.10;73.30;;;;;;5076479;28;20024;-77
2022/07/27 02:24:44;;;;;;;1.45;0.70;;;15.10;73.30;;;;;;5076465;28;20115;-77
2022/07/27 02:27:10;;;;;;;2.05;0.80;;;15.10;73.30;;;;;;5076761;28;20115;-77
2022/07/27 02:29:35;;;;;;;1.60;0.70;;;15.10;73.30;;;;;;5095321;28;20024;-77
2022/07/27 02:32:01;;;;;;;3.35;0.80;;;15.20;73.20;;;;;;5076554;28;20074;-77
2022/07/27 02:34:27;;;;;;;2.17;0.80;;;15.20;73.20;;;;;;5094710;28;20387;-77
2022/07/27 02:36:52;;;;;;;2.13;0.70;;;15.20;73.20;;;;;;5076430;28;20032;-76
2022/07/27 02:39:18;;;;;;;1.20;0.90;;;15.20;73.10;;;;;;5076328;28;20439;-77
2022/07/27 02:41:46;;;;;;;2.03;0.90;;;15.20;73.10;;;;;;5094408;28;20077;-76
2022/07/27 02:44:13;;;;;;;3.17;0.90;;;15.10;73.10;;;;;;5076201;28;20488;-76
2022/07/27 02:46:40;;;;;;;1.77;0.80;;;15.20;73.30;;;;;;5094432;28;20028;-77
2022/07/27 02:49:05;;;;;;;3.33;0.75;;;15.10;73.30;;;;;;5093058;28;20032;-77
2022/07/27 02:51:32;;;;;;;3.13;0.82;;;15.10;73.30;;;;;;5076067;28;20119;-78
2022/07/27 02:53:58;;;;;;;2.65;0.90;;;15.10;73.40;;;;;;5076190;28;20028;-78
2022/07/27 02:56:24;;;;;;;2.35;0.90;;;15.10;73.40;;;;;;5094220;28;20059;-77
2022/07/27 02:58:49;;;;;;;2.15;0.90;;;15.10;73.40;;;;;;5076163;28;20120;-78
2022/07/27 03:01:15;;;;;;;2.80;1.02;;;15.10;73.50;;;;;;5094472;28;20460;-78
2022/07/27 03:03:41;;;;;;;5.45;1.20;;;15.10;73.50;;;;;;5075899;28;20023;-77
2022/07/27 03:06:07;;;;;;;3.53;0.90;;;15.10;73.50;;;;;;5076281;28;20116;-77
2022/07/27 03:08:34;;;;;;;2.97;1.00;;;15.10;73.50;;;;;;5075993;28;20061;-77
2022/07/27 03:10:59;;;;;;;3.63;1.10;;;15.10;73.40;;;;;;5075591;28;20026;-77
2022/07/27 03:13:25;;;;;;;4.13;2.00;;;15.10;73.40;;;;;;5093723;28;20024;-78
2022/07/27 03:15:51;;;;;;;4.78;0.90;;;15.10;73.40;;;;;;5075778;28;20024;-77
2022/07/27 03:18:17;;;;;;;1.92;0.90;;;15.10;73.40;;;;;;5075589;28;20028;-77
2022/07/27 03:20:42;;;;;;;2.05;1.13;;;15.10;73.40;;;;;;5094353;28;20098;-78
2022/07/27 03:23:08;;;;;;;4.55;1.13;;;15.20;73.40;;;;;;5094040;28;20063;-78
2022/07/27 03:25:33;;;;;;;3.47;0.90;;;15.20;73.40;;;;;;5075950;28;20020;-78
2022/07/27 03:27:59;;;;;;;2.30;1.20;;;15.20;73.50;;;;;;5075901;28;20506;-77
2022/07/27 03:30:25;;;;;;;3.38;1.00;;;15.10;73.50;;;;;;5075754;28;20441;-78
2022/07/27 03:32:50;;;;;;;3.50;1.08;;;15.10;73.60;;;;;;5075472;28;20048;-78
2022/07/27 03:35:16;;;;;;;1.35;1.13;;;15.10;73.60;;;;;;5093876;28;20020;-78
2022/07/27 03:37:42;;;;;;;5.75;1.20;;;15.00;73.70;;;;;;5093682;28;20054;-78
2022/07/27 03:40:09;;;;;;;3.15;1.10;;;15.00;73.70;;;;;;5075272;28;20020;-77
2022/07/27 03:42:34;;;;;;;5.07;1.08;;;15.00;73.90;;;;;;5092296;28;20031;-78
2022/07/27 03:45:00;;;;;;;2.42;1.00;;;14.90;73.90;;;;;;5093904;28;20440;-76
2022/07/27 03:47:26;;;;;;;3.88;1.10;;;14.90;74.10;;;;;;5075325;28;20022;-78
2022/07/27 03:49:51;;;;;;;3.75;0.90;;;14.80;74.10;;;;;;5075226;28;20499;-78
2022/07/27 03:52:18;;;;;;;3.05;1.10;;;14.80;74.20;;;;;;5093590;28;20028;-78
2022/07/27 03:54:44;;;;;;;1.65;0.80;;;14.80;74.40;;;;;;5092051;28;20024;-78
2022/07/27 03:57:10;;;;;;;2.90;1.10;;;14.70;74.40;;;;;;5074910;28;20445;-78
2022/07/27 03:59:35;;;;;;;2.47;1.10;;;14.70;74.50;;;;;;5075055;28;20031;-76
2022/07/27 04:02:02;;;;;;;3.22;1.00;;;14.70;74.60;;;;;;5093123;28;20028;-77
2022/07/27 04:04:28;;;;;;;2.33;1.02;;;14.70;74.60;;;;;;5093202;28;20016;-78
2022/07/27 04:06:54;;;;;;;3.40;1.10;;;14.60;74.60;;;;;;5074936;28;20385;-77
2022/07/27 04:09:19;;;;;;;2.55;1.00;;;14.70;74.70;;;;;;5093495;28;20028;-78
2022/07/27 04:11:45;;;;;;;1.15;0.85;;;14.60;74.70;;;;;;5074751;28;20111;-78
2022/07/27 04:14:11;;;;;;;2.65;0.90;;;14.60;74.80;;;;;;5075575;28;20035;-78
2022/07/27 04:16:37;;;;;;;2.60;0.70;;;14.70;74.80;;;;;;5093103;28;20023;-78
2022/07/27 04:19:03;;;;;;;2.50;0.90;;;14.60;74.80;;;;;;5091724;28;20036;-78
2022/07/27 04:21:28;;;;;;;3.00;0.98;;;14.70;74.80;;;;;;5074436;28;20035;-78
2022/07/27 04:23:54;;;;;;;2.10;0.88;;;14.70;74.80;;;;;;5074628;28;20051;-78
2022/07/27 04:26:20;;;;;;;2.35;0.70;;;14.80;74.80;;;;;;5074594;28;20110;-78
2022/07/27 04:28:46;;;;;;;2.60;1.45;;;14.80;74.80;;;;;;5074670;28;20028;-77
2022/07/27 04:31:11;;;;;;;2.55;0.98;;;14.80;74.80;;;;;;5074259;28;20122;-77
2022/07/27 04:33:37;;;;;;;2.25;0.98;;;14.80;74.80;;;;;;5092234;28;20333;-78
2022/07/27 04:36:04;;;;;;;3.55;0.95;;;14.90;74.90;;;;;;5092597;28;20025;-78
2022/07/27 04:38:29;;;;;;;2.50;0.70;;;14.90;74.80;;;;;;5073810;28;20360;-77
2022/07/27 04:40:55;;;;;;;3.10;0.98;;;15.00;74.70;;;;;;5074506;28;20027;-77
2022/07/27 04:43:21;;;;;;;2.10;0.90;;;15.00;74.70;;;;;;5074255;28;20032;-77
2022/07/27 04:45:46;;;;;;;3.45;0.85;;;15.00;74.70;;;;;;5074516;28;20483;-77
2022/07/27 04:48:12;;;;;;;1.63;0.68;;;15.10;74.60;;;;;;5093045;28;20020;-77
2022/07/27 04:50:46;;;;;;;2.35;0.80;;;15.10;74.60;;;;;;5074411;28;20020;-77
2022/07/27 04:53:13;;;;;;;2.58;0.80;;;15.10;74.60;;;;;;5091369;28;20032;-77
2022/07/27 04:55:45;;;;;;;1.58;0.70;;;15.10;74.40;;;;;;5092559;28;20032;-77
2022/07/27 04:58:12;;;;;;;1.15;0.60;;;15.20;74.40;;;;;;5074834;28;20442;-78
2022/07/27 05:00:38;;;;;;;1.83;0.80;;;15.20;74.30;;;;;;5091142;28;20024;-78
2022/07/27 05:03:04;;;;;;;2.10;1.02;;;15.20;74.30;;;;;;5091002;28;20115;-78
2022/07/27 05:05:30;;;;;;;2.33;0.80;;;15.20;74.30;;;;;;5074250;28;20116;-77
2022/07/27 05:07:55;;;;;;;2.22;1.00;;;15.20;74.20;;;;;;5074226;28;20028;-78
2022/07/27 05:10:21;;;;;;;3.92;1.40;;;15.20;74.20;;;;;;5092662;28;20103;-77
2022/07/27 05:12:48;;;;;;;2.70;1.15;;;15.20;74.20;;;;;;5074938;28;20028;-77
2022/07/27 05:15:15;;;;;;;1.65;0.90;;;15.20;74.20;;;;;;5091270;28;20470;-77
2022/07/27 05:17:41;;;;;;;3.50;1.02;;;15.20;74.40;;;;;;5092253;28;20383;-77
2022/07/27 05:20:07;;;;;;;2.38;1.02;;;15.20;74.50;;;;;;5092537;28;20028;-78
2022/07/27 05:22:32;;;;;;;2.75;0.90;;;15.30;74.60;;;;;;5073921;28;20047;-77
2022/07/27 05:24:58;;;;;;;2.88;1.05;;;15.30;74.70;;;;;;5073877;28;20467;-77
2022/07/27 05:27:24;;;;;;;1.17;1.08;;;15.30;74.70;;;;;;5092074;28;20034;-77
2022/07/27 05:29:49;;;;;;;1.42;0.77;;;15.30;74.70;;;;;;5073853;28;20525;-77
2022/07/27 05:32:15;;;;;;;2.00;1.00;;;15.40;74.80;;;;;;5073677;28;20047;-78
2022/07/27 05:34:42;;;;;;;1.42;0.77;;;15.40;74.80;;;;;;5073881;28;20024;-77
2022/07/27 05:37:08;;;;;;;1.23;0.68;;;15.50;74.80;;;;;;5073808;28;20031;-77
2022/07/27 05:39:34;;;;;;;1.73;0.90;;;15.50;74.80;;;;;;5092054;28;20448;-77
2022/07/27 05:42:00;;;;;;;0.95;0.60;;;15.60;74.80;;;;;;5073615;28;20032;-77
2022/07/27 05:44:26;;;;;;;1.50;0.70;;;15.60;74.80;;;;;;5073641;28;20016;-77
2022/07/27 05:46:52;;;;;;;2.42;0.73;;;15.60;74.80;;;;;;5091992;28;20028;-77
2022/07/27 05:49:18;;;;;;;1.17;0.60;;;15.60;74.70;;;;;;5073967;28;20032;-77
2022/07/27 05:51:43;;;;;;;1.42;0.80;;;15.70;74.70;;;;;;5096052;28;20024;-78
2022/07/27 05:54:09;;;;;;;0.98;0.80;;;15.80;74.60;;;;;;5095668;28;20031;-78
2022/07/27 05:56:35;;;;;;;1.27;0.52;;;15.80;74.60;;;;;;5077365;28;20487;-77
2022/07/27 05:59:01;;;;;;;1.27;0.60;;;15.90;74.60;;;;;;5077253;28;20452;-77
2022/07/27 06:01:26;;;;;;;1.55;0.60;;;15.90;74.40;;;;;;5093905;28;20040;-77
2022/07/27 06:03:52;;;;;;;3.25;0.80;;;16.10;74.40;;;;;;5077501;28;20031;-77
2022/07/27 06:09:02;;;;;;;2.90;0.60;;;16.20;74.30;;;;;;5095840;28;20097;-77
2022/07/27 06:11:29;;;;;;;1.40;0.60;;;16.20;74.20;;;;;;5077010;28;20382;-77
2022/07/27 06:13:55;;;;;;;1.48;0.63;;;16.30;74.10;;;;;;5095462;28;20039;-77
2022/07/27 06:16:21;;;;;;;1.65;0.50;;;16.40;74.00;;;;;;5076963;28;20025;-77
2022/07/27 06:18:47;;;;;;;1.38;0.70;;;16.50;74.00;;;;;;5094053;28;20016;-78
2022/07/27 06:21:13;;;;;;;2.28;0.68;;;16.60;73.80;;;;;;5052651;28;20543;-78
2022/07/27 06:27:00;;;;;;;0.95;0.60;;;16.80;73.30;;;;;;5053406;28;20094;-78
2022/07/27 06:29:26;;;;;;;1.30;0.60;;;16.90;73.00;;;;;;5049859;28;20511;-77
2022/07/27 06:31:52;;;;;;;1.20;0.50;;;16.90;72.90;;;;;;5050280;28;20068;-77
2022/07/27 06:34:17;;;;;;;1.13;0.50;;;16.90;72.80;;;;;;5052622;28;20126;-77
2022/07/27 06:36:44;;;;;;;0.88;0.40;;;16.90;72.80;;;;;;5049822;28;20044;-77
2022/07/27 06:39:13;;;;;;;1.52;0.63;;;17.00;72.70;;;;;;5035858;28;20524;-77
2022/07/27 06:41:38;;;;;;;1.10;0.60;;;17.00;72.50;;;;;;5050249;28;20056;-77
2022/07/27 06:44:04;;;;;;;1.70;0.70;;;17.10;72.40;;;;;;5052249;28;20465;-77
2022/07/27 06:46:30;;;;;;;1.80;0.45;;;17.10;72.20;;;;;;5035746;28;20086;-78
2022/07/27 06:48:55;;;;;;;1.42;0.55;;;17.20;72.20;;;;;;5052117;28;20021;-78
2022/07/27 06:51:22;;;;;;;1.20;0.68;;;17.20;72.00;;;;;;5058419;28;20390;-77
2022/07/27 06:53:52;;;;;;;1.20;0.43;;;17.20;71.90;;;;;;5093563;28;20039;-77
2022/07/27 06:56:18;;;;;;;1.15;0.52;;;17.30;71.70;;;;;;5093179;28;20017;-78
2022/07/27 06:58:43;;;;;;;1.08;0.47;;;17.40;71.60;;;;;;5094219;28;20053;-78
2022/07/27 07:01:09;;;;;;;0.98;0.40;;;17.50;71.40;;;;;;5075661;28;20144;-77
2022/07/27 07:03:35;;;;;;;1.80;0.50;;;17.60;71.20;;;;;;5076127;28;20396;-78
2022/07/27 07:06:00;;;;;;;0.85;0.50;;;17.60;70.90;;;;;;5076204;28;20494;-77
2022/07/27 07:08:26;;;;;;;1.15;0.40;;;17.70;70.80;;;;;;5076360;28;20118;-77
2022/07/27 07:10:52;;;;;;;0.80;0.47;;;17.80;70.60;;;;;;5076015;28;20476;-76
2022/07/27 07:13:18;;;;;;;1.80;0.50;;;17.80;70.50;;;;;;5094563;28;20472;-77
2022/07/27 07:15:43;;;;;;;1.33;0.60;;;17.80;70.40;;;;;;5072933;28;20050;-77
2022/07/27 07:18:10;;;;;;;0.98;0.40;;;17.90;70.30;;;;;;5076076;28;20019;-77
2022/07/27 07:20:37;;;;;;;1.63;0.57;;;17.90;70.10;;;;;;5094378;28;20059;-77
2022/07/27 07:23:03;;;;;;;2.42;0.70;;;17.90;70.00;;;;;;5092746;28;20031;-76
2022/07/27 07:25:30;;;;;;;1.88;0.43;;;18.00;70.00;;;;;;5093997;28;20102;-74
2022/07/27 07:27:56;;;;;;;2.42;0.80;;;18.00;69.90;;;;;;5092736;28;20103;-76
2022/07/27 07:30:22;;;;;;;5.28;0.60;;;18.00;69.90;;;;;;5093934;28;20093;-76
2022/07/27 07:32:48;;;;;;;1.27;0.57;;;18.00;69.80;;;;;;5093797;28;20127;-75
2022/07/27 07:35:14;;;;;;;0.70;0.50;;;17.90;69.80;;;;;;5075439;28;20016;-75
2022/07/27 07:37:40;;;;;;;1.70;0.55;;;17.90;69.80;;;;;;5093528;28;20050;-76
2022/07/27 07:40:07;;;;;;;2.40;0.47;;;17.90;69.80;;;;;;5075517;28;20020;-76
2022/07/27 07:42:47;;;;;;;1.13;0.60;;;17.90;69.70;;;;;;5074989;28;20474;-76
2022/07/27 07:45:14;;;;;;;2.05;0.65;;;17.90;69.60;;;;;;5091881;28;20024;-76
2022/07/27 07:47:40;;;;;;;0.57;0.40;;;17.90;69.60;;;;;;5093557;28;20467;-76
2022/07/27 07:50:06;;;;;;;1.52;0.68;;;17.80;69.50;;;;;;5075253;28;20023;-75
2022/07/27 07:52:32;;;;;;;1.75;0.55;;;17.80;69.50;;;;;;5075002;28;20491;-75
2022/07/27 07:54:57;;;;;;;1.40;0.60;;;17.80;69.40;;;;;;5093357;28;20067;-75
2022/07/27 07:57:23;;;;;;;3.10;0.70;;;17.80;69.00;;;;;;5093085;28;20100;-75
2022/07/27 07:59:48;;;;;;;3.33;0.80;;;17.80;68.80;;;;;;5074506;28;20039;-75
2022/07/27 08:02:14;;;;;;;1.77;0.85;;;17.80;68.60;;;;;;5074871;28;20260;-74
2022/07/27 08:04:40;;;;;;;1.83;0.80;;;17.90;68.40;;;;;;5075077;28;20028;-76
2022/07/27 08:07:06;;;;;;;2.10;0.70;;;17.90;68.00;;;;;;5071984;28;20024;-76
2022/07/27 08:09:32;;;;;;;1.27;0.50;;;18.00;67.60;;;;;;5075101;28;20020;-75
2022/07/27 08:11:58;;;;;;;2.55;0.85;;;18.00;67.10;;;;;;5074701;28;20020;-75
2022/07/27 08:17:46;;;;;;;3.88;0.70;;;18.10;66.20;;;;;;5093794;28;20144;-76
2022/07/27 08:20:13;;;;;;;3.08;0.80;;;18.20;66.00;;;;;;5093158;28;20030;-77
2022/07/27 08:22:40;;;;;;;3.20;0.90;;;18.30;65.60;;;;;;5091485;28;20028;-75
2022/07/27 08:25:07;;;;;;;1.70;0.80;;;18.40;65.30;;;;;;5092113;28;20024;-77
2022/07/27 08:27:32;;;;;;;2.05;0.80;;;18.50;65.00;;;;;;5092080;28;20391;-75
2022/07/27 08:29:58;;;;;;;3.20;0.80;;;18.40;64.90;;;;;;5075371;28;20009;-76
2022/07/27 08:32:24;;;;;;;2.30;0.73;;;18.50;64.80;;;;;;5093191;28;20032;-75
2022/07/27 08:34:50;;;;;;;2.70;0.75;;;18.50;64.60;;;;;;5093443;28;20115;-75
2022/07/27 08:37:16;;;;;;;1.40;0.77;;;18.60;64.40;;;;;;5091547;28;20020;-77
2022/07/27 08:39:42;;;;;;;1.83;0.60;;;18.80;64.10;;;;;;5074788;28;20468;-74
2022/07/27 08:45:29;;;;;;;2.65;0.60;;;19.20;63.50;;;;;;5093116;28;20072;-76
2022/07/27 08:47:56;;;;;;;1.70;0.70;;;19.40;63.00;;;;;;5074289;28;20103;-75
2022/07/27 08:50:22;;;;;;;2.20;0.55;;;19.60;61.90;;;;;;5074532;28;20027;-76
2022/07/27 08:53:04;;;;;;;3.08;0.80;;;19.60;61.60;;;;;;5091558;28;20013;-76
2022/07/27 08:55:32;;;;;;;2.17;0.55;;;19.70;61.10;;;;;;5091787;28;20101;-80
2022/07/27 09:01:20;;;;;;;2.58;0.60;;;19.70;60.60;;;;;;5093312;28;20107;-80
2022/07/27 09:03:46;;;;;;;1.98;0.60;;;19.50;60.80;;;;;;5092838;28;20450;-80
2022/07/27 09:06:12;;;;;;;2.53;0.88;;;19.40;61.00;;;;;;5092724;28;20013;-78
2022/07/27 09:08:40;;;;;;;2.20;0.70;;;19.20;61.00;;;;;;5074311;28;20016;-78
2022/07/27 09:11:14;;;;;;;3.08;0.70;;;19.10;60.60;;;;;;5074521;28;20020;-78
2022/07/27 09:13:40;;;;;;;2.13;0.80;;;19.10;60.70;;;;;;5074198;28;20062;-79
2022/07/27 09:16:09;;;;;;;1.75;0.60;;;19.20;60.60;;;;;;5092730;28;20118;-79
2022/07/27 09:18:36;;;;;;;1.75;0.52;;;19.30;60.10;;;;;;5091486;28;20027;-81
2022/07/27 09:21:19;;;;;;;1.65;0.70;;;19.50;59.60;;;;;;5088542;28;20498;-80
2022/07/27 09:23:53;;;;;;;;;;;19.70;59.20;;;;;;5075870;28;20028;-80
2022/07/27 09:26:24;;;;;;;1.45;0.60;;;19.80;58.90;;;;;;5078210;28;20389;-80
2022/07/27 09:29:13;;;;;;;1.75;0.60;;;20.00;58.60;;;;;;5094990;28;20012;-80
2022/07/27 09:31:43;;;;;;;3.42;0.85;;;20.10;58.20;;;;;;5077741;28;20425;-76
2022/07/27 09:34:10;;;;;;;1.92;0.60;;;20.20;57.90;;;;;;5077509;28;20371;-74
2022/07/27 09:36:52;;;;;;;1.00;0.70;;;20.30;57.80;;;;;;5074854;28;20082;-75
2022/07/27 09:39:24;;;;;;;1.52;0.60;;;20.40;57.40;;;;;;5095737;28;20024;-74
2022/07/27 09:41:52;;;;;;;1.08;0.60;;;20.50;57.10;;;;;;5094043;28;20051;-74
2022/07/27 09:44:38;;;;;;;1.80;0.43;;;20.50;56.80;;;;;;5094101;28;20024;-75
2022/07/27 09:47:25;;;;;;;3.17;0.70;;;20.40;56.40;;;;;;5093973;28;20028;-75
2022/07/27 09:49:52;;;;;;;1.50;0.65;;;20.30;56.30;;;;;;5095234;28;20016;-73
2022/07/27 09:52:26;;;;;;;3.30;0.70;;;20.20;56.50;;;;;;5093731;28;20020;-73
2022/07/27 09:54:52;;;;;;;4.40;1.17;;;20.10;56.40;;;;;;5077082;28;20111;-74
2022/07/27 09:57:18;;;;;;;2.75;0.65;;;20.00;56.00;;;;;;5095365;28;20032;-74
2022/07/27 09:59:44;;;;;;;3.38;0.77;;;19.80;56.30;;;;;;5076934;28;20056;-72
2022/07/27 10:02:12;;;;;;;1.98;0.80;;;19.70;56.60;;;;;;5093853;28;20110;-74
2022/07/27 10:04:38;;;;;;;1.42;0.70;;;19.60;56.70;;;;;;5095389;28;20058;-74
2022/07/27 10:07:05;;;;;;;1.77;0.75;;;19.60;57.00;;;;;;5093914;28;20473;-74
2022/07/27 10:09:32;;;;;;;2.53;0.80;;;19.60;57.00;;;;;;5092899;28;20384;-74
2022/07/27 10:11:57;;;;;;;3.00;0.75;;;19.60;57.00;;;;;;5095007;28;20024;-74
2022/07/27 10:14:24;;;;;;;2.20;0.65;;;19.60;57.00;;;;;;5076575;28;20043;-73
2022/07/27 10:16:50;;;;;;;1.00;0.80;;;19.60;57.10;;;;;;5094954;28;20022;-73
2022/07/27 10:19:19;;;;;;;2.75;1.08;;;19.70;57.10;;;;;;5076338;28;20519;-74
2022/07/27 10:21:46;;;;;;;4.18;0.65;;;19.80;57.10;;;;;;5076441;28;20032;-74
2022/07/27 10:24:35;;;;;;;0.95;0.60;;;19.90;56.90;;;;;;5094644;28;20043;-74
2022/07/27 10:27:25;;;;;;;1.73;0.75;;;19.90;56.60;;;;;;5093288;28;20501;-73
2022/07/27 10:29:51;;;;;;;0.98;0.60;;;20.00;56.40;;;;;;5093065;28;20016;-72
2022/07/27 10:32:31;;;;;;;4.22;0.88;;;20.10;56.40;;;;;;5075981;28;20063;-74
2022/07/27 10:34:57;;;;;;;1.80;0.70;;;20.30;56.30;;;;;;5093872;28;20081;-73
2022/07/27 10:37:25;;;;;;;3.38;0.73;;;20.30;55.90;;;;;;5092692;28;20023;-74
2022/07/27 10:42:38;;;;;;;1.48;0.80;;;20.50;55.70;;;;;;5093989;28;20521;-73
2022/07/27 10:45:12;;;;;;;1.77;0.68;;;20.60;55.40;;;;;;5094286;28;20386;-73
2022/07/27 10:47:49;;;;;;;3.42;0.75;;;20.70;55.30;;;;;;5092936;28;20528;-73
2022/07/27 10:50:15;;;;;;;1.75;0.82;;;20.60;55.30;;;;;;5093981;28;20387;-74
2022/07/27 10:52:43;;;;;;;2.75;0.73;;;20.60;55.30;;;;;;5094103;28;20078;-73
2022/07/27 10:55:28;;;;;;;1.85;0.50;;;20.40;55.20;;;;;;5093846;28;20520;-74
2022/07/27 10:57:57;;;;;;;2.10;0.65;;;20.40;55.60;;;;;;5075708;28;20436;-73
2022/07/27 11:00:47;;;;;;;4.50;0.93;;;20.30;55.60;;;;;;5094154;28;20485;-78
2022/07/27 11:03:21;;;;;;;0.85;0.57;;;20.30;55.50;;;;;;5094017;28;20066;-73
2022/07/27 11:06:06;;;;;;;1.80;0.68;;;20.40;54.80;;;;;;5075065;28;20043;-74
2022/07/27 11:08:34;;;;;;;4.70;0.90;;;20.50;54.60;;;;;;5093849;28;20036;-73
2022/07/27 11:11:00;;;;;;;1.83;0.52;;;20.70;54.50;;;;;;5092463;28;20577;-74
2022/07/27 11:13:27;;;;;;;2.58;0.70;;;20.90;54.30;;;;;;5093774;28;20051;-74
2022/07/27 11:15:55;;;;;;;1.55;0.70;;;21.20;53.80;;;;;;5092700;28;20074;-74
2022/07/27 11:18:28;;;;;;;1.90;0.60;;;21.40;53.50;;;;;;5092509;28;20020;-75
2022/07/27 11:21:20;;;;;;;1.30;0.70;;;21.60;53.00;;;;;;5092527;28;20028;-74
2022/07/27 11:23:48;;;;;;;1.77;0.60;;;21.80;51.80;;;;;;5091999;28;20029;-74
2022/07/27 11:26:18;;;;;;;1.15;0.55;;;21.80;51.80;;;;;;5092085;28;20024;-76
2022/07/27 11:28:44;;;;;;;1.45;0.80;;;21.80;51.70;;;;;;5092893;28;20046;-75
2022/07/27 11:31:12;;;;;;;1.10;0.80;;;21.80;51.50;;;;;;5092678;28;20031;-74
2022/07/27 11:33:55;;;;;;;2.50;0.80;;;21.70;51.30;;;;;;5091992;28;20403;-75
2022/07/27 11:36:22;;;;;;;1.27;0.60;;;21.50;51.70;;;;;;5093360;28;20039;-74
2022/07/27 11:38:53;;;;;;;2.78;0.80;;;21.40;51.80;;;;;;5075214;28;20020;-72
2022/07/27 11:41:27;;;;;;;2.83;0.70;;;21.30;51.90;;;;;;5075158;28;20095;-74
2022/07/27 11:43:58;;;;;;;3.13;0.65;;;21.20;52.10;;;;;;5075564;28;20024;-74
2022/07/27 11:46:28;;;;;;;2.40;0.90;;;21.10;51.70;;;;;;5091590;28;20052;-75
2022/07/27 11:49:06;;;;;;;1.55;0.60;;;21.10;51.40;;;;;;5092328;28;20024;-75
2022/07/27 11:51:36;;;;;;;2.83;0.63;;;21.10;51.50;;;;;;5094203;28;20483;-76
2022/07/27 11:54:45;;;;;;;1.63;0.70;;;21.20;51.40;;;;;;5077264;28;20388;-76
2022/07/27 11:57:15;;;;;;;0.82;0.50;;;21.20;50.70;;;;;;5094104;28;20522;-75
2022/07/27 11:59:43;;;;;;;1.52;0.65;;;21.20;50.60;;;;;;5093348;28;20028;-74
2022/07/27 12:02:18;;;;;;;1.85;0.50;;;21.10;50.60;;;;;;5088694;28;20039;-75
2022/07/27 12:04:46;;;;;;;1.27;0.70;;;21.20;50.60;;;;;;5070561;28;20395;-75
2022/07/27 12:07:18;;;;;;;1.25;0.60;;;21.30;50.10;;;;;;5092362;28;20020;-75
2022/07/27 12:09:53;;;;;;;0.65;0.55;;;21.30;50.00;;;;;;5070654;28;20095;-73
2022/07/27 12:12:32;;;;;;;0.70;0.63;;;21.40;50.20;;;;;;5070834;28;20131;-73
2022/07/27 12:15:03;;;;;;;0.88;0.57;;;21.50;49.90;;;;;;5054044;28;20138;-74
2022/07/27 12:20:51;;;;;;;2.30;0.65;;;21.80;49.20;;;;;;5070844;28;20168;-73
2022/07/27 12:23:17;;;;;;;4.22;1.13;;;22.00;48.90;;;;;;5053704;28;20058;-75
2022/07/27 12:25:43;;;;;;;1.88;0.73;;;22.10;47.90;;;;;;5050818;28;20045;-70
2022/07/27 12:28:16;;;;;;;1.00;0.40;;;22.20;47.90;;;;;;5050924;28;20024;-71
2022/07/27 12:30:50;;;;;;;1.27;0.50;;;22.40;47.70;;;;;;5053988;28;20484;-71
2022/07/27 12:33:36;;;;;;;0.85;0.40;;;22.70;47.60;;;;;;5067590;28;20523;-71
2022/07/27 12:36:05;;;;;;;0.90;0.52;;;22.90;47.30;;;;;;5070352;28;20385;-71
2022/07/27 12:38:49;;;;;;;1.60;0.82;;;22.90;47.00;;;;;;5051017;28;20041;-71
2022/07/27 12:41:29;;;;;;;1.38;0.40;;;22.90;46.70;;;;;;5086612;28;20043;-71
2022/07/27 12:44:16;;;;;;;1.38;0.55;;;22.90;47.20;;;;;;5092615;28;20024;-75
2022/07/27 12:50:18;;;;;;;1.05;0.55;;;23.30;46.70;;;;;;5093020;28;20343;-71
2022/07/27 12:52:47;;;;;;;2.65;0.55;;;23.40;46.40;;;;;;5092710;28;20361;-73
2022/07/27 12:55:14;;;;;;;1.75;0.85;;;23.50;46.50;;;;;;5092394;28;20024;-72
2022/07/27 12:57:40;;;;;;;1.60;0.52;;;23.40;46.50;;;;;;5074310;28;20032;-74
2022/07/27 13:00:12;;;;;;;1.85;0.70;;;23.40;46.70;;;;;;5095293;28;20107;-72
2022/07/27 13:02:38;;;;;;;1.70;0.60;;;23.20;46.80;;;;;;5095052;28;20028;-72
2022/07/27 13:05:07;;;;;;;0.95;0.60;;;23.10;46.70;;;;;;5095006;28;20031;-74
2022/07/27 13:07:33;;;;;;;1.17;0.52;;;22.90;46.20;;;;;;5095225;28;20024;-75
2022/07/27 13:10:27;;;;;;;1.42;0.57;;;22.80;46.20;;;;;;5095743;28;20016;-76
2022/07/27 13:12:53;;;;;;;1.40;0.60;;;22.70;46.30;;;;;;5078199;28;20016;-76
2022/07/27 13:15:19;;;;;;;1.67;0.60;;;22.60;46.10;;;;;;5078289;28;20356;-75
2022/07/27 13:17:48;;;;;;;0.73;0.52;;;22.60;46.20;;;;;;5095098;28;20407;-73